Cisco, Utah
Current Conditions -  °F | °C
As of 10:53 PM on Sunday 25 Jan 2015 (Local Time) from KCNY Reporting Station
Clear Clear  
Wind Chill: 29°   Ceiling: Unl
Heat Index: 33°   Visibility: 10mi
Dew Point: 24°   Wind: 5mph
Humidity: 70%   Direction: 280°W
Pressure: 30.34"   Gusts: NA
Location:  38.97°N, 109.32°W
Report Text: KCNY 260553Z AUTO 28004KT 10SM CLR 01/M04 A3034 RMK AO2 SLP287 T00061044 10089 21028 53004
Loading
Personal Weather Stations






























Interactive Weather Map New forecast layout! Learn more

10-Day Weather Forecast

Advertisements
Track Severe Weather on mobile